createdAt,value
2023-11-23T00:00:10.643Z,13.18
2023-11-23T00:02:37.921Z,15.88
2023-11-23T00:05:05.782Z,9.52
2023-11-23T00:07:33.565Z,9.57
2023-11-23T00:10:00.606Z,12.45
2023-11-23T00:12:30.563Z,9.10
2023-11-23T00:14:58.063Z,9.80
2023-11-23T00:17:24.844Z,7.82
2023-11-23T00:19:52.932Z,9.80
2023-11-23T00:22:19.702Z,8.95
2023-11-23T00:24:46.604Z,9.15
2023-11-23T00:27:16.433Z,6.72
2023-11-23T00:29:43.679Z,8.82
2023-11-23T00:32:10.601Z,9.68
2023-11-23T00:34:37.543Z,9.93
2023-11-23T00:37:05.759Z,12.48
2023-11-23T00:39:32.602Z,8.85
2023-11-23T00:41:59.532Z,9.07
2023-11-23T00:44:26.493Z,10.32
2023-11-23T00:46:53.397Z,8.90
2023-11-23T00:49:21.029Z,9.48
2023-11-23T00:51:47.801Z,9.98
2023-11-23T00:54:14.827Z,8.65
2023-11-23T00:56:42.231Z,8.40
2023-11-23T01:01:40.977Z,8.38
2023-11-23T01:04:09.442Z,7.88
2023-11-23T01:06:36.286Z,8.98
2023-11-23T01:09:03.295Z,9.75
2023-11-23T01:11:30.227Z,8.53
2023-11-23T01:13:57.140Z,10.23
2023-11-23T01:16:24.101Z,8.20
2023-11-23T01:18:51.251Z,11.20
2023-11-23T01:21:18.218Z,8.47
2023-11-23T01:23:45.090Z,6.72
2023-11-23T01:26:14.041Z,9.43
2023-11-23T01:28:40.980Z,10.55
2023-11-23T01:31:07.896Z,9.48
2023-11-23T01:33:34.798Z,7.95
2023-11-23T01:36:01.758Z,8.50
2023-11-23T01:38:28.534Z,8.90
2023-11-23T01:40:58.056Z,10.57
2023-11-23T01:43:25.023Z,8.45
2023-11-23T01:45:51.970Z,9.25
2023-11-23T01:48:20.815Z,9.23
2023-11-23T01:50:49.610Z,11.07
2023-11-23T01:53:17.828Z,9.00
2023-11-23T01:55:45.513Z,9.60
2023-11-23T01:58:15.756Z,12.73
2023-11-23T02:00:43.400Z,11.18
2023-11-23T02:03:10.613Z,10.52
2023-11-23T02:05:37.850Z,8.45
2023-11-23T02:08:06.423Z,12.00
2023-11-23T02:10:33.703Z,12.63
2023-11-23T02:13:01.353Z,11.50
2023-11-23T02:15:28.495Z,11.93
2023-11-23T02:18:07.480Z,13.70
2023-11-23T02:20:34.457Z,11.13
2023-11-23T02:23:01.538Z,11.13
2023-11-23T02:25:29.057Z,12.53
2023-11-23T02:27:56.133Z,13.27
2023-11-23T02:30:23.286Z,11.07
2023-11-23T02:32:51.647Z,13.70
2023-11-23T02:35:22.286Z,10.27
2023-11-23T02:37:49.554Z,13.05
2023-11-23T02:40:16.889Z,8.77
2023-11-23T02:42:46.387Z,11.20
2023-11-23T02:45:14.725Z,14.52
2023-11-23T02:50:10.612Z,10.45
2023-11-23T02:52:37.461Z,12.93
2023-11-23T02:55:04.481Z,13.20
2023-11-23T02:57:31.372Z,12.60
2023-11-23T02:59:58.553Z,14.52
2023-11-23T03:02:25.492Z,16.05
2023-11-23T03:04:52.470Z,12.73
2023-11-23T03:07:19.509Z,12.77
2023-11-23T03:09:47.073Z,12.53
2023-11-23T03:12:13.929Z,12.85
2023-11-23T03:14:40.842Z,13.60
2023-11-23T03:17:09.253Z,13.77
2023-11-23T03:19:37.674Z,12.38
2023-11-23T03:22:06.099Z,14.90
2023-11-23T03:24:34.323Z,14.77
2023-11-23T03:27:01.340Z,16.98
2023-11-23T03:29:28.226Z,14.90
2023-11-23T03:31:54.987Z,16.15
2023-11-23T03:34:22.228Z,13.70
2023-11-23T03:36:49.296Z,13.82
2023-11-23T03:39:16.309Z,15.37
2023-11-23T03:41:43.236Z,16.23
2023-11-23T03:44:10.149Z,13.93
2023-11-23T03:46:37.086Z,12.98
2023-11-23T03:49:04.189Z,15.20
2023-11-23T03:51:31.807Z,17.30
2023-11-23T03:53:59.222Z,16.40
2023-11-23T03:56:26.079Z,18.33
2023-11-23T03:58:53.257Z,19.83
2023-11-23T04:01:20.288Z,19.80
2023-11-23T04:03:47.848Z,17.13
2023-11-23T04:06:14.731Z,19.85
2023-11-23T04:08:45.283Z,18.80
2023-11-23T04:11:12.328Z,20.67
2023-11-23T04:13:40.248Z,21.47
2023-11-23T04:18:33.966Z,20.73
2023-11-23T04:21:01.784Z,20.35
2023-11-23T04:25:55.497Z,22.45
2023-11-23T04:28:22.433Z,25.25
2023-11-23T04:30:49.318Z,25.70
2023-11-23T04:33:16.302Z,29.90
2023-11-23T04:35:43.182Z,26.10
2023-11-23T04:38:10.006Z,32.50
2023-11-23T04:40:37.198Z,26.88
2023-11-23T04:43:04.086Z,23.83
2023-11-23T04:45:30.893Z,28.40
2023-11-23T04:47:57.859Z,24.52
2023-11-23T04:50:25.255Z,26.45
2023-11-23T04:52:52.185Z,21.98
2023-11-23T04:55:20.200Z,28.10
2023-11-23T04:57:47.488Z,26.42
2023-11-23T05:00:14.936Z,26.40
2023-11-23T05:02:44.907Z,20.88
2023-11-23T05:05:14.700Z,27.85
2023-11-23T05:07:42.805Z,24.55
2023-11-23T05:10:10.631Z,24.40
2023-11-23T05:12:38.225Z,25.17
2023-11-23T05:15:07.353Z,27.20
2023-11-23T05:17:34.459Z,24.77
2023-11-23T05:20:01.483Z,21.20
2023-11-23T05:22:28.406Z,19.13
2023-11-23T05:24:55.303Z,22.40
2023-11-23T05:27:22.579Z,25.42
2023-11-23T05:29:51.638Z,18.92
2023-11-23T05:32:19.885Z,22.70
2023-11-23T05:34:47.074Z,27.33
2023-11-23T05:37:14.116Z,25.57
2023-11-23T05:39:43.343Z,25.67
2023-11-23T05:42:11.698Z,28.80
2023-11-23T05:44:38.864Z,21.60
2023-11-23T05:47:06.383Z,22.13
2023-11-23T05:49:33.379Z,22.75
2023-11-23T05:52:00.350Z,23.10
2023-11-23T05:54:27.280Z,27.77
2023-11-23T05:56:54.185Z,27.55
2023-11-23T05:59:21.909Z,24.73
2023-11-23T06:01:48.790Z,24.15
2023-11-23T06:04:15.805Z,30.33
2023-11-23T06:06:42.789Z,26.50
2023-11-23T06:09:12.426Z,22.33
2023-11-23T06:11:39.374Z,26.60
2023-11-23T06:14:06.459Z,26.87
2023-11-23T06:16:33.426Z,22.53
2023-11-23T06:19:03.557Z,24.50
2023-11-23T06:21:31.146Z,28.25
2023-11-23T06:23:58.094Z,28.38
2023-11-23T06:26:24.969Z,26.20
2023-11-23T06:28:52.010Z,22.80
2023-11-23T06:31:19.695Z,27.33
2023-11-23T06:33:46.980Z,26.77
2023-11-23T06:36:13.932Z,28.33
2023-11-23T06:38:40.791Z,26.40
2023-11-23T06:41:09.474Z,26.90
2023-11-23T06:43:38.038Z,25.83
2023-11-23T06:46:05.205Z,28.60
2023-11-23T06:48:32.334Z,24.83
2023-11-23T06:50:59.232Z,28.80
2023-11-23T06:53:26.776Z,25.20
2023-11-23T06:55:53.722Z,26.38
2023-11-23T06:58:22.258Z,29.73
2023-11-23T07:00:49.237Z,15.68
2023-11-23T07:03:16.137Z,27.83
2023-11-23T07:05:43.269Z,25.33
2023-11-23T07:08:11.052Z,26.00
2023-11-23T07:10:37.867Z,28.27
2023-11-23T07:13:05.224Z,27.70
2023-11-23T07:15:32.341Z,23.50
2023-11-23T07:18:01.041Z,27.77
2023-11-23T07:20:28.276Z,26.13
2023-11-23T07:22:55.070Z,24.30
2023-11-23T07:25:21.836Z,22.98
2023-11-23T07:27:48.746Z,25.95
2023-11-23T07:33:40.472Z,26.42
2023-11-23T07:36:08.229Z,27.95
2023-11-23T07:38:35.066Z,27.77
2023-11-23T07:41:02.900Z,25.60
2023-11-23T07:46:01.251Z,28.17
2023-11-23T07:48:28.816Z,24.73
2023-11-23T07:50:56.057Z,24.08
2023-11-23T07:53:26.934Z,24.63
2023-11-23T07:55:55.308Z,25.67
2023-11-23T07:58:22.337Z,22.80
2023-11-23T08:00:49.194Z,23.97
2023-11-23T08:03:16.359Z,25.15
2023-11-23T08:05:43.634Z,22.33
2023-11-23T08:08:11.973Z,23.08
2023-11-23T08:10:39.015Z,22.65
2023-11-23T08:13:36.814Z,27.27
2023-11-23T08:16:05.649Z,22.73
2023-11-23T08:18:40.284Z,24.83
2023-11-23T08:21:14.124Z,25.80
2023-11-23T08:23:43.002Z,22.23
2023-11-23T08:26:12.344Z,25.40
2023-11-23T08:28:39.269Z,22.65
2023-11-23T08:31:08.299Z,23.98
2023-11-23T08:33:35.089Z,22.15
2023-11-23T08:36:02.059Z,16.92
2023-11-23T08:38:30.460Z,24.13
2023-11-23T08:40:57.589Z,23.58
2023-11-23T08:43:24.822Z,28.87
2023-11-23T08:45:51.710Z,25.95
2023-11-23T08:48:23.973Z,27.10
2023-11-23T08:50:50.905Z,23.05
2023-11-23T08:53:18.032Z,25.63
2023-11-23T08:55:49.656Z,23.40
2023-11-23T08:58:16.806Z,23.83
2023-11-23T09:00:45.223Z,21.03
2023-11-23T09:03:12.196Z,25.23
2023-11-23T09:05:39.341Z,29.93
2023-11-23T09:08:08.326Z,27.90
2023-11-23T09:10:35.215Z,23.25
2023-11-23T09:13:06.537Z,22.77
2023-11-23T09:15:34.202Z,24.27
2023-11-23T09:18:02.170Z,20.35
2023-11-23T09:22:56.270Z,19.47
2023-11-23T09:25:23.176Z,21.23
2023-11-23T09:27:51.396Z,20.50
2023-11-23T09:30:18.526Z,25.75
2023-11-23T09:32:45.610Z,21.40
2023-11-23T09:35:12.950Z,18.87
2023-11-23T09:37:40.893Z,21.38
2023-11-23T09:40:10.781Z,17.80
2023-11-23T09:42:40.083Z,20.95
2023-11-23T09:45:12.387Z,20.10
2023-11-23T09:47:39.901Z,22.10
2023-11-23T09:50:08.385Z,14.80
2023-11-23T09:52:38.039Z,15.48
2023-11-23T09:55:08.860Z,26.33
2023-11-23T09:57:37.311Z,24.02
2023-11-23T10:00:11.045Z,21.98
2023-11-23T10:02:38.420Z,18.67
2023-11-23T10:05:08.768Z,23.77
2023-11-23T10:07:36.489Z,21.23
2023-11-23T10:10:06.981Z,17.77
2023-11-23T10:12:37.397Z,22.38
2023-11-23T10:15:06.098Z,16.58
2023-11-23T10:17:33.821Z,18.10
2023-11-23T10:20:20.811Z,22.98
2023-11-23T10:22:50.763Z,17.85
2023-11-23T10:25:33.631Z,16.75
2023-11-23T10:28:01.165Z,12.93
2023-11-23T10:30:31.507Z,21.58
2023-11-23T10:33:00.024Z,15.60
2023-11-23T10:35:43.541Z,14.88
2023-11-23T10:38:12.589Z,12.98
2023-11-23T10:40:39.455Z,15.15
2023-11-23T10:43:08.255Z,15.20
2023-11-23T10:45:39.967Z,14.02
2023-11-23T10:48:07.434Z,13.02
2023-11-23T10:50:34.920Z,17.67
2023-11-23T10:53:03.010Z,12.05
2023-11-23T10:55:29.952Z,13.73
2023-11-23T10:58:09.342Z,15.63
2023-11-23T11:00:37.294Z,13.27
2023-11-23T11:03:11.378Z,12.75
2023-11-23T11:05:47.044Z,12.55
2023-11-23T11:08:19.474Z,14.00
2023-11-23T11:10:46.419Z,11.00
2023-11-23T11:13:18.289Z,13.57
2023-11-23T11:15:53.435Z,13.95
2023-11-23T11:18:25.924Z,12.00
2023-11-23T11:21:08.899Z,9.70
2023-11-23T11:24:01.126Z,12.52
2023-11-23T11:26:31.672Z,11.40
2023-11-23T11:29:00.773Z,9.60
2023-11-23T11:31:41.507Z,11.13
2023-11-23T11:34:23.313Z,9.25
2023-11-23T11:37:01.285Z,16.55
2023-11-23T11:39:33.253Z,13.02
2023-11-23T11:42:08.207Z,9.82
2023-11-23T11:44:36.795Z,9.30
2023-11-23T11:47:10.052Z,9.77
2023-11-23T11:49:37.336Z,8.50
2023-11-23T11:52:07.289Z,10.07
2023-11-23T11:54:34.335Z,10.10
2023-11-23T11:57:03.416Z,8.30
2023-11-23T11:59:31.583Z,8.18
2023-11-23T12:01:58.808Z,8.70
2023-11-23T12:04:25.990Z,12.57
2023-11-23T12:06:54.413Z,12.30
2023-11-23T12:09:34.346Z,12.40
2023-11-23T12:12:07.256Z,9.77
2023-11-23T12:14:35.396Z,8.90
2023-11-23T12:17:12.226Z,9.65
2023-11-23T12:19:54.023Z,6.93
2023-11-23T12:22:24.607Z,7.80
2023-11-23T12:24:52.705Z,5.68
2023-11-23T12:27:22.277Z,7.03
2023-11-23T12:29:50.329Z,6.93
2023-11-23T12:34:45.334Z,6.47
2023-11-23T12:37:12.231Z,8.35
2023-11-23T12:39:40.097Z,6.75
2023-11-23T12:42:07.168Z,8.32
2023-11-23T12:44:36.943Z,7.00
2023-11-23T12:47:04.283Z,6.53
2023-11-23T12:49:31.409Z,6.75
2023-11-23T12:51:58.879Z,9.33
2023-11-23T12:54:26.806Z,10.48
2023-11-23T12:56:54.482Z,7.10
2023-11-23T12:59:21.498Z,7.80
2023-11-23T13:01:48.813Z,8.65
2023-11-23T13:04:20.996Z,10.50
2023-11-23T13:06:48.348Z,5.55
2023-11-23T13:09:20.049Z,6.97
2023-11-23T13:11:47.310Z,7.72
2023-11-23T13:14:14.173Z,9.07
2023-11-23T13:16:41.393Z,6.40
2023-11-23T13:19:17.163Z,6.85
2023-11-23T13:21:55.091Z,6.68
2023-11-23T13:24:22.282Z,7.28
2023-11-23T13:26:50.969Z,4.68
2023-11-23T13:29:18.801Z,4.10
2023-11-23T13:31:47.834Z,6.85
2023-11-23T13:34:16.279Z,12.52
2023-11-23T13:36:43.225Z,6.43
2023-11-23T13:39:15.289Z,6.33
2023-11-23T13:41:42.210Z,5.85
2023-11-23T13:44:09.351Z,7.35
2023-11-23T13:46:36.197Z,7.10
2023-11-23T13:49:04.627Z,4.47
2023-11-23T13:51:33.157Z,8.73
2023-11-23T13:54:01.345Z,7.43
2023-11-23T13:56:29.674Z,6.72
2023-11-23T13:58:57.204Z,5.30
2023-11-23T14:01:24.353Z,5.35
2023-11-23T14:03:51.448Z,5.50
2023-11-23T14:06:18.502Z,4.23
2023-11-23T14:08:46.060Z,4.20
2023-11-23T14:11:19.907Z,4.88
2023-11-23T14:13:46.782Z,6.18
2023-11-23T14:16:13.716Z,5.25
2023-11-23T14:18:43.058Z,6.40
2023-11-23T14:21:11.735Z,9.65
2023-11-23T14:23:40.717Z,4.00
2023-11-23T14:26:09.848Z,4.63
2023-11-23T14:28:40.343Z,8.25
2023-11-23T14:31:19.157Z,4.10
2023-11-23T14:33:47.002Z,5.50
2023-11-23T14:38:48.047Z,7.78
2023-11-23T14:41:20.721Z,7.30
2023-11-23T14:43:47.936Z,5.85
2023-11-23T14:46:16.198Z,9.10
2023-11-23T14:48:44.612Z,6.43
2023-11-23T14:51:11.883Z,6.45
2023-11-23T14:53:40.191Z,6.05
2023-11-23T14:56:09.556Z,3.95
2023-11-23T14:58:36.874Z,4.57
2023-11-23T15:01:04.091Z,6.95
2023-11-23T15:03:31.616Z,5.22
2023-11-23T15:05:58.577Z,3.75
2023-11-23T15:08:25.389Z,6.47
2023-11-23T15:11:17.034Z,6.72
2023-11-23T15:14:16.068Z,5.97
2023-11-23T15:44:45.849Z,5.72
2023-11-23T15:47:41.274Z,7.70
2023-11-23T15:50:25.326Z,8.65
2023-11-23T15:57:21.869Z,3.45
2023-11-23T18:58:40.394Z,9.32
2023-11-23T19:01:07.517Z,9.70
2023-11-23T19:03:34.768Z,9.18
2023-11-23T19:06:04.742Z,10.55
2023-11-23T19:08:31.543Z,10.13
2023-11-23T19:10:59.754Z,7.50
2023-11-23T19:13:29.471Z,11.13
2023-11-23T19:15:56.570Z,9.38
2023-11-23T19:18:24.428Z,13.20
2023-11-23T19:23:19.008Z,4.07
2023-11-23T19:25:50.178Z,6.25
2023-11-23T19:28:18.189Z,11.50
2023-11-23T19:30:45.381Z,7.80
2023-11-23T19:33:13.223Z,13.85
2023-11-23T19:38:07.572Z,11.30
2023-11-23T19:40:34.803Z,9.13
2023-11-23T19:43:02.997Z,9.23
2023-11-23T19:45:32.902Z,6.65
2023-11-23T19:48:00.201Z,15.90
2023-11-23T19:50:27.605Z,9.00
2023-11-23T19:52:57.710Z,9.50
2023-11-23T19:55:27.114Z,16.02
2023-11-23T19:57:54.160Z,9.90
2023-11-23T20:00:21.217Z,16.57
2023-11-23T20:02:48.326Z,11.33
2023-11-23T20:05:15.284Z,15.07
2023-11-23T20:07:42.198Z,7.63
2023-11-23T20:10:09.480Z,9.52
2023-11-23T20:12:37.576Z,6.00
2023-11-23T20:15:05.030Z,9.65
2023-11-23T20:17:31.946Z,11.80
2023-11-23T20:19:59.586Z,8.87
2023-11-23T20:22:27.312Z,14.57
2023-11-23T20:24:54.646Z,16.65
2023-11-23T20:27:21.576Z,13.40
2023-11-23T20:29:48.418Z,28.43
2023-11-23T20:32:15.444Z,17.25
2023-11-23T20:34:43.358Z,11.03
2023-11-23T20:37:10.364Z,14.43
2023-11-23T20:39:37.972Z,11.00
2023-11-23T20:42:05.029Z,10.68
2023-11-23T20:44:31.954Z,12.73
2023-11-23T20:46:59.835Z,17.43
2023-11-23T20:49:26.694Z,15.30
2023-11-23T20:51:54.222Z,14.60
2023-11-23T20:54:21.360Z,13.45
2023-11-23T20:56:48.801Z,11.67
2023-11-23T20:59:18.138Z,16.95
2023-11-23T21:01:45.261Z,18.60
2023-11-23T21:04:15.047Z,13.10
2023-11-23T21:06:53.147Z,10.57
2023-11-23T21:09:26.416Z,15.60
2023-11-23T21:11:56.626Z,13.48
2023-11-23T21:14:24.875Z,10.85
2023-11-23T21:16:52.105Z,16.13
2023-11-23T21:19:19.191Z,13.40
2023-11-23T21:21:46.331Z,19.95
2023-11-23T21:24:14.479Z,14.70
2023-11-23T21:26:41.809Z,16.17
2023-11-23T21:29:10.887Z,12.20
2023-11-23T21:31:38.123Z,10.95
2023-11-23T21:34:05.730Z,16.77
2023-11-23T21:36:33.706Z,14.98
2023-11-23T21:39:01.168Z,15.23
2023-11-23T21:41:28.037Z,12.02
2023-11-23T21:43:54.980Z,11.02
2023-11-23T21:46:21.935Z,11.73
2023-11-23T21:48:49.762Z,14.67
2023-11-23T21:53:48.483Z,13.85
2023-11-23T21:56:15.498Z,10.63
2023-11-23T21:58:42.509Z,14.60
2023-11-23T22:01:09.790Z,19.93
2023-11-23T22:03:37.037Z,18.05
2023-11-23T22:06:05.992Z,16.17
2023-11-23T22:08:34.874Z,12.52
2023-11-23T22:11:01.715Z,10.57
2023-11-23T22:13:28.835Z,9.63
2023-11-23T22:15:55.985Z,44.13
2023-11-23T22:18:23.829Z,10.07
2023-11-23T22:23:17.648Z,13.88
2023-11-23T22:25:44.827Z,19.37
2023-11-23T22:28:11.934Z,13.40
2023-11-23T22:30:39.231Z,16.83
2023-11-23T22:33:08.585Z,15.40
2023-11-23T22:35:37.097Z,19.42
2023-11-23T22:38:07.587Z,12.57
2023-11-23T22:40:35.978Z,7.95
2023-11-23T22:43:05.486Z,9.52
2023-11-23T22:45:32.738Z,17.52
2023-11-23T22:47:59.745Z,13.32
2023-11-23T22:50:26.559Z,17.73
2023-11-23T22:52:53.337Z,13.57
2023-11-23T22:55:20.306Z,8.80
2023-11-23T22:57:47.671Z,12.32
2023-11-23T23:00:28.089Z,14.75
2023-11-23T23:02:55.801Z,11.65
2023-11-23T23:05:22.741Z,7.80
2023-11-23T23:07:50.196Z,11.80
2023-11-23T23:10:17.861Z,13.63
2023-11-23T23:12:44.746Z,11.32
2023-11-23T23:15:11.496Z,13.90
2023-11-23T23:17:38.377Z,9.05
2023-11-23T23:20:07.459Z,12.27
2023-11-23T23:22:34.583Z,12.90
2023-11-23T23:25:01.550Z,8.13
2023-11-23T23:27:28.358Z,8.03
2023-11-23T23:29:55.197Z,12.52
2023-11-23T23:32:24.896Z,7.55
2023-11-23T23:34:52.445Z,8.80
2023-11-23T23:37:19.238Z,9.30
2023-11-23T23:39:46.080Z,11.77
2023-11-23T23:42:12.912Z,17.88
2023-11-23T23:44:39.733Z,11.10
2023-11-23T23:47:08.867Z,11.68
2023-11-23T23:49:35.983Z,10.98
2023-11-23T23:52:03.955Z,15.37
2023-11-23T23:54:30.831Z,11.60
2023-11-23T23:56:59.043Z,8.55
2023-11-23T23:59:26.182Z,14.60
